createdAt,value
2018-02-25T00:01:50.761Z,66.78
2018-02-25T00:02:50.814Z,67.35
2018-02-25T00:04:43.807Z,67.16
2018-02-25T00:05:43.840Z,67.25
2018-02-25T00:07:36.828Z,67.82
2018-02-25T00:08:36.860Z,67.54
2018-02-25T00:10:29.864Z,67.72
2018-02-25T00:11:29.893Z,67.54
2018-02-25T00:13:22.884Z,68.39
2018-02-25T00:14:22.912Z,67.82
2018-02-25T00:16:15.889Z,67.63
2018-02-25T00:17:15.938Z,68.44
2018-02-25T00:19:08.957Z,68.48
2018-02-25T00:20:08.974Z,67.91
2018-02-25T00:22:01.936Z,68.39
2018-02-25T00:23:02.002Z,68.39
2018-02-25T00:24:55.019Z,68.48
2018-02-25T00:25:55.003Z,68.26
2018-02-25T00:27:48.025Z,68.29
2018-02-25T00:28:48.034Z,68.29
2018-02-25T00:30:41.010Z,68.95
2018-02-25T00:31:41.074Z,68.54
2018-02-25T00:33:34.045Z,69.33
2018-02-25T00:34:34.081Z,68.67
2018-02-25T00:36:27.046Z,69.20
2018-02-25T00:37:27.094Z,68.54
2018-02-25T00:39:20.089Z,68.92
2018-02-25T00:40:20.123Z,68.92
2018-02-25T00:42:13.091Z,68.92
2018-02-25T00:43:13.142Z,68.82
2018-02-25T00:45:06.143Z,68.92
2018-02-25T00:46:06.167Z,68.92
2018-02-25T00:47:59.166Z,69.20
2018-02-25T00:48:59.177Z,68.82
2018-02-25T00:50:52.208Z,69.67
2018-02-25T00:51:52.208Z,69.86
2018-02-25T00:53:45.218Z,69.96
2018-02-25T00:54:45.221Z,69.67
2018-02-25T00:56:38.188Z,69.58
2018-02-25T00:57:38.243Z,69.96
2018-02-25T00:59:31.233Z,70.05
2018-02-25T01:00:31.264Z,70.15
2018-02-25T01:02:24.235Z,69.49
2018-02-25T01:03:24.293Z,69.77
2018-02-25T01:05:17.280Z,69.39
2018-02-25T01:06:17.303Z,69.77
2018-02-25T01:08:10.295Z,69.58
2018-02-25T01:09:10.327Z,69.86
2018-02-25T01:11:03.303Z,69.86
2018-02-25T01:12:03.347Z,69.77
2018-02-25T01:13:56.335Z,69.77
2018-02-25T01:14:56.368Z,69.77
2018-02-25T01:16:49.335Z,69.39
2018-02-25T01:17:49.399Z,69.49
2018-02-25T01:19:42.371Z,70.05
2018-02-25T01:20:42.401Z,70.24
2018-02-25T01:22:35.395Z,70.24
2018-02-25T01:23:35.456Z,70.81
2018-02-25T01:25:28.426Z,70.62
2018-02-25T01:26:28.459Z,71.00
2018-02-25T01:28:21.445Z,71.94
2018-02-25T01:29:21.473Z,71.75
2018-02-25T01:31:14.441Z,71.94
2018-02-25T01:32:14.492Z,71.47
2018-02-25T01:34:07.481Z,71.37
2018-02-25T01:35:07.514Z,71.37
2018-02-25T01:37:00.477Z,71.37
2018-02-25T01:38:00.526Z,71.94
2018-02-25T01:39:53.519Z,72.22
2018-02-25T01:40:53.550Z,71.75
2018-02-25T01:42:46.531Z,72.32
2018-02-25T01:43:46.582Z,72.60
2018-02-25T01:45:39.555Z,72.13
2018-02-25T01:46:39.586Z,72.13
2018-02-25T01:48:32.603Z,71.75
2018-02-25T01:49:32.609Z,71.84
2018-02-25T01:51:25.574Z,71.66
2018-02-25T01:52:25.627Z,71.56
2018-02-25T01:54:18.615Z,70.43
2018-02-25T01:55:18.644Z,71.00
2018-02-25T01:57:11.621Z,70.62
2018-02-25T01:58:11.690Z,71.19
2018-02-25T02:00:04.664Z,70.90
2018-02-25T02:01:04.686Z,70.43
2018-02-25T02:02:57.650Z,70.72
2018-02-25T02:03:57.720Z,70.53
2018-02-25T02:05:50.693Z,71.28
2018-02-25T02:06:50.724Z,71.47
2018-02-25T02:08:43.719Z,72.13
2018-02-25T02:09:43.740Z,71.37
2018-02-25T02:11:36.713Z,71.28
2018-02-25T02:12:36.763Z,71.28
2018-02-25T02:14:29.755Z,70.62
2018-02-25T02:15:29.788Z,70.53
2018-02-25T02:17:22.770Z,70.24
2018-02-25T02:18:22.807Z,70.43
2018-02-25T02:20:15.794Z,70.43
2018-02-25T02:21:15.823Z,70.24
2018-02-25T02:23:08.792Z,71.19
2018-02-25T02:24:08.845Z,71.47
2018-02-25T02:26:01.833Z,71.47
2018-02-25T02:27:01.880Z,70.43
2018-02-25T02:28:54.867Z,70.72
2018-02-25T02:29:54.880Z,70.43
2018-02-25T02:31:47.854Z,70.90
2018-02-25T02:32:47.896Z,70.53
2018-02-25T02:34:40.892Z,70.05
2018-02-25T02:35:40.926Z,69.96
2018-02-25T02:37:33.898Z,70.53
2018-02-25T02:38:33.940Z,71.19
2018-02-25T02:40:26.933Z,71.19
2018-02-25T02:41:26.956Z,71.56
2018-02-25T02:43:19.941Z,72.03
2018-02-25T02:44:19.974Z,71.47
2018-02-25T02:46:12.963Z,71.66
2018-02-25T02:47:12.991Z,71.47
2018-02-25T02:49:05.978Z,71.66
2018-02-25T02:50:06.008Z,71.47
2018-02-25T02:51:58.981Z,71.47
2018-02-25T02:52:59.026Z,71.09
2018-02-25T02:54:52.026Z,71.37
2018-02-25T02:55:52.053Z,71.28
2018-02-25T02:57:45.023Z,71.28
2018-02-25T02:58:45.071Z,71.37
2018-02-25T03:00:38.060Z,71.28
2018-02-25T03:01:38.085Z,71.47
2018-02-25T03:03:31.051Z,71.37
2018-02-25T03:04:31.106Z,71.56
2018-02-25T03:06:24.087Z,71.56
2018-02-25T03:07:24.119Z,72.03
2018-02-25T03:09:17.105Z,71.37
2018-02-25T03:10:17.135Z,71.94
2018-02-25T03:12:10.100Z,71.56
2018-02-25T03:13:10.151Z,71.84
2018-02-25T03:15:03.137Z,71.47
2018-02-25T03:16:03.165Z,72.03
2018-02-25T03:17:56.135Z,71.84
2018-02-25T03:18:56.184Z,71.75
2018-02-25T03:20:49.176Z,71.91
2018-02-25T03:21:49.201Z,72.51
2018-02-25T03:23:42.177Z,72.22
2018-02-25T03:24:42.228Z,72.09
2018-02-25T03:26:35.216Z,72.85
2018-02-25T03:27:35.248Z,72.94
2018-02-25T03:29:28.230Z,72.85
2018-02-25T03:30:28.272Z,72.75
2018-02-25T03:32:21.736Z,73.13
2018-02-25T03:33:21.786Z,72.75
2018-02-25T03:35:14.777Z,72.56
2018-02-25T03:36:14.816Z,72.38
2018-02-25T03:38:07.784Z,72.75
2018-02-25T03:39:07.837Z,72.85
2018-02-25T03:41:00.823Z,73.41
2018-02-25T03:42:00.848Z,73.88
2018-02-25T03:43:53.818Z,73.41
2018-02-25T03:44:53.865Z,73.79
2018-02-25T03:46:46.852Z,73.88
2018-02-25T03:47:46.878Z,73.69
2018-02-25T03:49:39.867Z,72.66
2018-02-25T03:50:39.897Z,72.38
2018-02-25T03:52:32.866Z,73.51
2018-02-25T03:53:32.916Z,73.51
2018-02-25T03:55:25.909Z,74.17
2018-02-25T03:56:25.940Z,74.36
2018-02-25T03:58:18.931Z,73.79
2018-02-25T03:59:19.047Z,74.74
2018-02-25T04:01:11.953Z,75.02
2018-02-25T04:02:11.985Z,74.83
2018-02-25T04:04:04.958Z,75.11
2018-02-25T04:05:05.008Z,75.11
2018-02-25T04:06:57.993Z,76.06
2018-02-25T04:07:58.021Z,76.43
2018-02-25T04:09:51.010Z,76.72
2018-02-25T04:10:51.040Z,76.81
2018-02-25T04:12:44.018Z,76.81
2018-02-25T04:13:44.125Z,77.09
2018-02-25T04:15:37.052Z,76.53
2018-02-25T04:16:37.080Z,76.72
2018-02-25T04:18:30.061Z,77.00
2018-02-25T04:19:30.100Z,76.62
2018-02-25T04:21:23.093Z,78.23
2018-02-25T04:22:23.119Z,78.23
2018-02-25T04:24:16.089Z,78.89
2018-02-25T04:25:16.142Z,78.51
2018-02-25T04:27:09.130Z,79.55
2018-02-25T04:28:09.196Z,79.93
2018-02-25T04:30:02.219Z,79.17
2018-02-25T04:31:02.175Z,80.21
2018-02-25T04:32:55.727Z,80.68
2018-02-25T04:33:55.706Z,81.15
2018-02-25T04:35:48.710Z,81.62
2018-02-25T04:36:48.731Z,81.62
2018-02-25T04:38:41.694Z,83.04
2018-02-25T04:39:41.753Z,83.23
2018-02-25T04:41:35.233Z,83.80
2018-02-25T04:42:35.257Z,83.70
2018-02-25T04:44:28.222Z,84.17
2018-02-25T04:45:28.275Z,85.40
2018-02-25T04:47:21.269Z,86.25
2018-02-25T04:48:21.291Z,86.63
2018-02-25T04:50:14.280Z,86.63
2018-02-25T04:51:14.307Z,86.53
2018-02-25T04:53:07.275Z,87.29
2018-02-25T04:54:07.331Z,87.19
2018-02-25T04:56:00.315Z,87.57
2018-02-25T04:57:00.384Z,88.23
2018-02-25T04:58:53.323Z,88.79
2018-02-25T04:59:53.374Z,88.98
2018-02-25T05:01:46.408Z,89.74
2018-02-25T05:02:46.414Z,89.64
2018-02-25T05:04:39.380Z,90.40
2018-02-25T05:05:39.433Z,91.06
2018-02-25T05:07:32.421Z,91.63
2018-02-25T05:08:32.451Z,91.72
2018-02-25T05:10:25.478Z,92.10
2018-02-25T05:11:25.480Z,91.91
2018-02-25T05:13:18.457Z,92.95
2018-02-25T05:14:18.499Z,92.38
2018-02-25T05:16:11.479Z,93.04
2018-02-25T05:17:11.515Z,92.57
2018-02-25T05:19:04.485Z,93.32
2018-02-25T05:20:04.557Z,93.61
2018-02-25T05:21:57.517Z,94.18
2018-02-25T05:22:57.562Z,93.89
2018-02-25T05:24:50.506Z,94.18
2018-02-25T05:25:50.558Z,94.65
2018-02-25T05:27:43.572Z,94.74
2018-02-25T05:28:43.579Z,94.74
2018-02-25T05:30:36.575Z,95.40
2018-02-25T05:31:36.596Z,95.03
2018-02-25T05:33:29.568Z,95.59
2018-02-25T05:34:29.622Z,95.64
2018-02-25T05:36:22.612Z,96.06
2018-02-25T05:37:22.647Z,96.06
2018-02-25T05:39:15.617Z,96.20
2018-02-25T05:40:15.665Z,96.01
2018-02-25T05:42:08.667Z,96.30
2018-02-25T05:43:08.709Z,96.63
2018-02-25T05:45:01.655Z,96.48
2018-02-25T05:46:01.762Z,96.67
2018-02-25T05:47:54.694Z,96.58
2018-02-25T05:48:54.727Z,97.05
2018-02-25T05:50:47.707Z,97.14
2018-02-25T05:51:47.737Z,97.24
2018-02-25T05:53:40.720Z,96.77
2018-02-25T05:54:40.756Z,96.86
2018-02-25T05:56:33.798Z,97.43
2018-02-25T05:57:33.771Z,97.43
2018-02-25T05:59:26.806Z,97.05
2018-02-25T06:00:26.828Z,97.24
2018-02-25T06:02:19.857Z,97.14
2018-02-25T06:03:19.856Z,97.05
2018-02-25T06:05:12.848Z,97.14
2018-02-25T06:06:12.898Z,97.14
2018-02-25T06:08:05.902Z,97.24
2018-02-25T06:09:05.873Z,96.95
2018-02-25T06:10:58.954Z,97.05
2018-02-25T06:11:58.923Z,97.05
2018-02-25T06:13:51.919Z,97.14
2018-02-25T06:14:51.963Z,97.05
2018-02-25T06:16:44.954Z,97.33
2018-02-25T06:17:44.967Z,97.33
2018-02-25T06:19:37.956Z,97.33
2018-02-25T06:20:37.984Z,97.52
2018-02-25T06:22:31.043Z,97.14
2018-02-25T06:23:31.005Z,97.43
2018-02-25T06:25:23.985Z,97.05
2018-02-25T06:26:24.049Z,97.24
2018-02-25T06:28:17.079Z,97.61
2018-02-25T06:29:17.048Z,97.43
2018-02-25T06:31:10.054Z,97.14
2018-02-25T06:32:10.032Z,97.10
2018-02-25T06:34:03.012Z,97.14
2018-02-25T06:35:03.081Z,97.43
2018-02-25T06:36:56.093Z,97.14
2018-02-25T06:37:56.095Z,97.14
2018-02-25T06:39:49.077Z,96.95
2018-02-25T06:40:49.097Z,97.05
2018-02-25T06:42:42.143Z,97.33
2018-02-25T06:43:42.105Z,97.14
2018-02-25T06:45:35.063Z,97.14
2018-02-25T06:46:35.136Z,97.33
2018-02-25T06:48:28.188Z,98.18
2018-02-25T06:49:28.165Z,97.80
2018-02-25T06:51:21.232Z,97.61
2018-02-25T06:52:21.176Z,97.61
2018-02-25T06:54:16.671Z,97.24
2018-02-25T06:55:16.694Z,97.61
2018-02-25T06:57:09.752Z,97.67
2018-02-25T06:58:09.716Z,97.48
2018-02-25T07:00:02.689Z,97.29
2018-02-25T07:01:02.743Z,97.29
2018-02-25T07:02:55.746Z,97.38
2018-02-25T07:03:55.722Z,97.29
2018-02-25T07:05:48.700Z,97.57
2018-02-25T07:06:48.731Z,97.48
2018-02-25T07:08:41.720Z,96.81
2018-02-25T07:09:41.750Z,96.91
2018-02-25T07:11:34.742Z,96.91
2018-02-25T07:12:34.772Z,96.53
2018-02-25T07:14:27.736Z,96.34
2018-02-25T07:15:27.788Z,95.87
2018-02-25T07:17:20.787Z,96.15
2018-02-25T07:18:20.801Z,96.06
2018-02-25T07:20:13.777Z,95.59
2018-02-25T07:21:13.817Z,95.68
2018-02-25T07:23:06.803Z,95.12
2018-02-25T07:24:06.852Z,95.12
2018-02-25T07:25:59.805Z,94.74
2018-02-25T07:26:59.854Z,93.61
2018-02-25T07:28:53.033Z,94.18
2018-02-25T07:29:53.408Z,94.36
2018-02-25T07:31:46.032Z,92.95
2018-02-25T07:32:45.990Z,92.95
2018-02-25T07:34:38.955Z,91.72
2018-02-25T07:35:39.006Z,91.25
2018-02-25T07:37:32.005Z,89.64
2018-02-25T07:38:32.035Z,90.02
2018-02-25T07:40:25.051Z,90.31
2018-02-25T07:41:25.046Z,90.50
2018-02-25T07:43:18.038Z,90.68
2018-02-25T07:44:18.062Z,87.52
2018-02-25T07:46:11.079Z,87.52
2018-02-25T07:47:11.079Z,86.95
2018-02-25T07:49:04.075Z,83.08
2018-02-25T07:50:04.128Z,76.79
2018-02-25T07:51:57.112Z,68.96
2018-02-25T07:52:57.122Z,64.52
2018-02-25T07:54:50.606Z,59.91
2018-02-25T07:55:50.647Z,58.78
2018-02-25T07:57:43.660Z,58.02
2018-02-25T07:58:43.669Z,57.83
2018-02-25T08:00:36.662Z,57.35
2018-02-25T08:01:36.706Z,56.63
2018-02-25T08:03:29.708Z,55.40
2018-02-25T08:04:29.728Z,55.56
2018-02-25T08:06:22.714Z,55.02
2018-02-25T08:07:22.779Z,54.35
2018-02-25T08:09:15.745Z,53.97
2018-02-25T08:10:15.815Z,53.59
2018-02-25T08:12:08.779Z,53.22
2018-02-25T08:13:08.815Z,52.84
2018-02-25T08:15:01.815Z,53.06
2018-02-25T08:16:01.843Z,52.01
2018-02-25T08:17:54.859Z,51.26
2018-02-25T08:18:54.887Z,51.61
2018-02-25T08:20:47.930Z,52.96
2018-02-25T08:21:47.944Z,52.75
2018-02-25T08:23:40.916Z,52.39
2018-02-25T08:24:41.032Z,51.80
2018-02-25T08:26:33.963Z,52.56
2018-02-25T08:27:33.971Z,52.11
2018-02-25T08:29:26.973Z,50.31
2018-02-25T08:30:27.001Z,50.57
2018-02-25T08:32:20.033Z,51.07
2018-02-25T08:33:20.065Z,50.78
2018-02-25T08:35:13.015Z,50.49
2018-02-25T08:36:13.081Z,50.59
2018-02-25T08:38:06.103Z,49.48
2018-02-25T08:39:06.203Z,48.75
2018-02-25T08:40:59.080Z,48.03
2018-02-25T08:41:59.166Z,49.27
2018-02-25T08:43:52.126Z,50.92
2018-02-25T08:44:52.161Z,52.15
2018-02-25T08:46:45.138Z,53.85
2018-02-25T08:47:45.192Z,53.66
2018-02-25T08:49:38.187Z,54.49
2018-02-25T08:50:38.270Z,54.68
2018-02-25T08:52:31.263Z,55.60
2018-02-25T08:53:31.250Z,56.54
2018-02-25T08:55:24.225Z,57.68
2018-02-25T08:56:24.277Z,58.53
2018-02-25T08:58:17.317Z,57.61
2018-02-25T08:59:17.355Z,57.52
2018-02-25T09:01:10.335Z,54.96
2018-02-25T09:02:10.419Z,54.42
2018-02-25T09:04:03.386Z,54.87
2018-02-25T09:05:03.422Z,55.15
2018-02-25T09:06:56.400Z,56.10
2018-02-25T09:07:56.453Z,54.30
2018-02-25T09:09:49.595Z,54.49
2018-02-25T09:10:49.500Z,54.61
2018-02-25T09:12:42.748Z,53.47
2018-02-25T09:13:42.631Z,53.07
2018-02-25T09:15:35.712Z,52.69
2018-02-25T09:16:35.658Z,53.19
2018-02-25T09:18:28.585Z,53.19
2018-02-25T09:19:28.722Z,52.94
2018-02-25T09:21:21.757Z,52.08
2018-02-25T09:22:21.897Z,51.51
2018-02-25T09:24:14.782Z,50.54
2018-02-25T09:25:14.828Z,51.58
2018-02-25T09:27:30.986Z,51.68
2018-02-25T09:28:07.925Z,52.69
2018-02-25T09:30:01.356Z,54.49
2018-02-25T09:31:00.921Z,56.29
2018-02-25T09:32:54.044Z,55.22
2018-02-25T09:33:53.978Z,55.31
2018-02-25T09:35:46.970Z,56.89
2018-02-25T09:36:46.946Z,57.65
2018-02-25T09:38:40.079Z,58.22
2018-02-25T09:39:40.021Z,58.69
2018-02-25T09:41:33.112Z,59.44
2018-02-25T09:42:33.256Z,59.54
2018-02-25T09:44:38.352Z,59.63
2018-02-25T09:45:37.660Z,60.11
2018-02-25T09:47:30.956Z,59.92
2018-02-25T09:48:30.702Z,59.54
2018-02-25T09:50:23.910Z,59.44
2018-02-25T09:51:23.733Z,59.25
2018-02-25T09:53:16.797Z,58.22
2018-02-25T09:54:16.773Z,58.69
2018-02-25T09:56:09.747Z,58.59
2018-02-25T09:57:09.769Z,58.69
2018-02-25T09:59:02.827Z,58.59
2018-02-25T10:00:02.857Z,58.12
2018-02-25T10:01:55.829Z,57.55
2018-02-25T10:02:55.905Z,56.99
2018-02-25T10:04:49.463Z,55.66
2018-02-25T10:05:49.428Z,55.10
2018-02-25T10:07:42.433Z,54.72
2018-02-25T10:08:42.372Z,54.34
2018-02-25T10:10:35.657Z,54.25
2018-02-25T10:11:35.623Z,53.96
2018-02-25T10:13:28.947Z,54.34
2018-02-25T10:14:28.647Z,54.53
2018-02-25T10:16:21.685Z,53.87
2018-02-25T10:17:21.748Z,53.87
2018-02-25T10:19:14.753Z,53.87
2018-02-25T10:20:14.793Z,53.96
2018-02-25T10:22:07.686Z,54.53
2018-02-25T10:23:07.767Z,54.72
2018-02-25T10:25:00.720Z,54.81
2018-02-25T10:26:00.804Z,54.53
2018-02-25T10:27:53.774Z,53.96
2018-02-25T10:28:53.796Z,53.70
2018-02-25T10:30:46.826Z,52.73
2018-02-25T10:31:46.752Z,53.11
2018-02-25T10:33:39.863Z,52.73
2018-02-25T10:34:39.876Z,53.02
2018-02-25T10:36:32.847Z,52.92
2018-02-25T10:37:32.848Z,52.73
2018-02-25T10:39:25.909Z,52.36
2018-02-25T10:40:25.894Z,52.55
2018-02-25T10:42:18.838Z,53.42
2018-02-25T10:43:18.886Z,53.14
2018-02-25T10:45:11.908Z,52.76
2018-02-25T10:46:11.965Z,52.76
2018-02-25T10:48:04.984Z,53.33
2018-02-25T10:49:04.967Z,53.33
2018-02-25T10:50:58.061Z,53.99
2018-02-25T10:51:57.997Z,53.42
2018-02-25T10:53:51.364Z,53.80
2018-02-25T10:54:50.989Z,53.80
2018-02-25T10:56:44.043Z,52.86
2018-02-25T10:57:44.020Z,52.67
2018-02-25T10:59:38.084Z,52.95
2018-02-25T11:00:37.044Z,52.67
2018-02-25T11:02:29.989Z,52.19
2018-02-25T11:03:30.039Z,52.67
2018-02-25T11:05:23.556Z,52.95
2018-02-25T11:06:23.574Z,52.67
2018-02-25T11:08:17.061Z,52.76
2018-02-25T11:09:17.093Z,53.05
2018-02-25T11:11:10.065Z,53.23
2018-02-25T11:12:10.166Z,52.57
2018-02-25T11:14:03.137Z,52.38
2018-02-25T11:15:03.161Z,52.19
2018-02-25T11:16:56.128Z,52.67
2018-02-25T11:17:56.212Z,52.10
2018-02-25T11:19:50.892Z,51.53
2018-02-25T11:20:51.385Z,50.96
2018-02-25T11:22:43.886Z,51.06
2018-02-25T11:23:43.911Z,51.34
2018-02-25T11:25:36.906Z,50.49
2018-02-25T11:26:36.960Z,50.30
2018-02-25T11:28:29.986Z,49.83
2018-02-25T11:29:30.007Z,50.02
2018-02-25T11:31:23.023Z,50.49
2018-02-25T11:32:23.325Z,50.49
2018-02-25T11:34:15.984Z,49.35
2018-02-25T11:35:16.037Z,49.45
2018-02-25T11:37:10.455Z,48.97
2018-02-25T11:38:10.572Z,49.45
2018-02-25T11:40:02.106Z,50.02
2018-02-25T11:41:02.058Z,50.21
2018-02-25T11:42:55.114Z,49.76
2018-02-25T11:43:55.174Z,49.45
2018-02-25T11:45:48.142Z,48.79
2018-02-25T11:46:48.196Z,48.88
2018-02-25T11:48:41.326Z,49.45
2018-02-25T11:49:41.636Z,49.35
2018-02-25T11:51:35.248Z,49.01
2018-02-25T11:52:34.179Z,48.82
2018-02-25T11:54:27.817Z,48.82
2018-02-25T11:55:27.232Z,48.82
2018-02-25T11:57:21.341Z,48.44
2018-02-25T11:58:22.573Z,48.06
2018-02-25T12:00:14.520Z,47.11
2018-02-25T12:01:14.328Z,47.02
2018-02-25T12:03:07.333Z,46.73
2018-02-25T12:04:07.389Z,46.55
2018-02-25T12:06:00.500Z,47.28
2018-02-25T12:07:00.421Z,47.77
2018-02-25T12:08:53.421Z,47.87
2018-02-25T12:09:53.460Z,47.20
2018-02-25T12:11:46.529Z,48.06
2018-02-25T12:12:46.534Z,47.87
2018-02-25T12:14:39.541Z,47.77
2018-02-25T12:15:39.548Z,48.25
2018-02-25T12:17:32.586Z,49.01
2018-02-25T12:18:32.618Z,48.72
2018-02-25T12:20:25.589Z,47.77
2018-02-25T12:21:25.817Z,48.44
2018-02-25T12:23:18.744Z,47.58
2018-02-25T12:24:19.133Z,47.58
2018-02-25T12:26:11.653Z,47.94
2018-02-25T12:27:11.664Z,48.82
2018-02-25T12:29:05.425Z,49.16
2018-02-25T12:30:05.464Z,50.42
2018-02-25T12:31:58.442Z,50.61
2018-02-25T12:32:58.624Z,50.42
2018-02-25T12:34:51.491Z,50.52
2018-02-25T12:35:51.507Z,50.04
2018-02-25T12:37:44.522Z,50.23
2018-02-25T12:38:44.576Z,50.23
2018-02-25T12:40:37.658Z,49.66
2018-02-25T12:41:37.574Z,49.48
2018-02-25T12:43:30.614Z,49.38
2018-02-25T12:44:30.594Z,49.48
2018-02-25T12:46:23.612Z,49.48
2018-02-25T12:47:23.618Z,50.04
2018-02-25T12:49:16.618Z,50.42
2018-02-25T12:50:16.651Z,50.71
2018-02-25T12:52:09.630Z,51.09
2018-02-25T12:53:09.700Z,50.71
2018-02-25T12:55:02.671Z,50.14
2018-02-25T12:56:02.704Z,49.29
2018-02-25T12:57:55.688Z,50.23
2018-02-25T12:58:55.729Z,50.07
2018-02-25T13:00:48.746Z,48.63
2018-02-25T13:01:48.772Z,47.96
2018-02-25T13:03:41.741Z,47.20
2018-02-25T13:04:41.812Z,47.77
2018-02-25T13:07:03.874Z,48.72
2018-02-25T13:08:03.968Z,49.10
2018-02-25T13:09:57.224Z,48.91
2018-02-25T13:10:56.907Z,48.82
2018-02-25T13:12:50.273Z,48.53
2018-02-25T13:13:49.908Z,48.63
2018-02-25T13:15:42.896Z,47.87
2018-02-25T13:16:42.926Z,49.10
2018-02-25T13:18:35.913Z,48.82
2018-02-25T13:19:35.949Z,48.82
2018-02-25T13:21:28.983Z,49.29
2018-02-25T13:22:28.973Z,49.01
2018-02-25T13:24:21.941Z,49.48
2018-02-25T13:25:22.014Z,49.66
2018-02-25T13:27:14.993Z,49.95
2018-02-25T13:28:15.043Z,50.33
2018-02-25T13:30:08.070Z,50.04
2018-02-25T13:31:08.041Z,49.38
2018-02-25T13:33:01.200Z,49.66
2018-02-25T13:34:01.096Z,49.57
2018-02-25T13:35:54.232Z,48.72
2018-02-25T13:36:54.126Z,48.82
2018-02-25T13:38:47.633Z,48.34
2018-02-25T13:39:47.697Z,48.82
2018-02-25T13:41:40.781Z,48.91
2018-02-25T13:42:40.719Z,49.01
2018-02-25T13:44:33.914Z,49.19
2018-02-25T13:45:33.734Z,49.48
2018-02-25T13:47:26.820Z,49.48
2018-02-25T13:48:26.773Z,49.66
2018-02-25T13:50:19.931Z,49.48
2018-02-25T13:51:19.815Z,49.57
2018-02-25T13:53:12.767Z,49.29
2018-02-25T13:54:12.841Z,50.23
2018-02-25T13:56:05.825Z,50.52
2018-02-25T13:57:05.895Z,49.48
2018-02-25T13:58:58.897Z,49.38
2018-02-25T13:59:58.900Z,49.66
2018-02-25T14:01:51.924Z,50.42
2018-02-25T14:02:51.957Z,50.14
2018-02-25T14:04:45.011Z,50.14
2018-02-25T14:05:45.000Z,49.38
2018-02-25T14:07:37.980Z,49.01
2018-02-25T14:08:38.003Z,49.29
2018-02-25T14:10:31.008Z,48.63
2018-02-25T14:11:31.070Z,48.82
2018-02-25T14:13:24.010Z,48.91
2018-02-25T14:14:24.063Z,48.72
2018-02-25T14:16:17.042Z,48.82
2018-02-25T14:17:17.098Z,48.72
2018-02-25T14:19:10.080Z,48.91
2018-02-25T14:20:10.118Z,48.63
2018-02-25T14:22:03.680Z,48.06
2018-02-25T14:23:03.654Z,48.25
2018-02-25T14:24:56.691Z,49.10
2018-02-25T14:25:56.678Z,49.66
2018-02-25T14:27:49.668Z,50.23
2018-02-25T14:28:49.695Z,50.61
2018-02-25T14:30:42.729Z,51.37
2018-02-25T14:31:42.766Z,52.12
2018-02-25T14:33:35.835Z,52.12
2018-02-25T14:34:35.795Z,52.50
2018-02-25T14:36:29.370Z,51.84
2018-02-25T14:37:29.423Z,51.28
2018-02-25T14:39:22.337Z,51.75
2018-02-25T14:40:22.364Z,51.65
2018-02-25T14:42:15.399Z,51.46
2018-02-25T14:43:15.579Z,51.37
2018-02-25T14:45:09.143Z,50.90
2018-02-25T14:46:08.950Z,50.71
2018-02-25T14:48:02.493Z,50.71
2018-02-25T14:49:02.511Z,50.61
2018-02-25T14:50:55.961Z,50.42
2018-02-25T14:51:56.048Z,50.49
2018-02-25T14:53:49.013Z,51.09
2018-02-25T14:54:49.057Z,51.28
2018-02-25T14:56:42.011Z,51.53
2018-02-25T14:57:42.083Z,51.25
2018-02-25T14:59:35.068Z,52.38
2018-02-25T15:00:35.084Z,51.72
2018-02-25T15:02:28.177Z,50.96
2018-02-25T15:03:28.120Z,50.96
2018-02-25T15:05:21.306Z,51.34
2018-02-25T15:06:21.128Z,51.25
2018-02-25T15:08:14.126Z,51.81
2018-02-25T15:09:14.134Z,51.72
2018-02-25T15:11:07.161Z,52.00
2018-02-25T15:12:07.161Z,52.10
2018-02-25T15:14:00.162Z,52.48
2018-02-25T15:15:00.205Z,52.38
2018-02-25T15:16:53.187Z,52.19
2018-02-25T15:17:53.211Z,51.81
2018-02-25T15:19:46.189Z,52.29
2018-02-25T15:20:46.244Z,52.19
2018-02-25T15:22:39.228Z,52.10
2018-02-25T15:23:39.261Z,52.10
2018-02-25T15:25:32.247Z,52.38
2018-02-25T15:26:32.300Z,52.76
2018-02-25T15:28:25.390Z,52.76
2018-02-25T15:29:25.322Z,52.38
2018-02-25T15:31:18.370Z,52.38
2018-02-25T15:32:18.366Z,52.10
2018-02-25T15:34:11.321Z,52.67
2018-02-25T15:35:11.374Z,53.05
2018-02-25T15:37:04.370Z,52.67
2018-02-25T15:38:04.392Z,52.19
2018-02-25T15:39:57.361Z,52.67
2018-02-25T15:40:57.417Z,52.76
2018-02-25T15:42:50.423Z,52.29
2018-02-25T15:43:50.440Z,52.29
2018-02-25T15:45:43.419Z,51.81
2018-02-25T15:46:43.458Z,51.81
2018-02-25T15:48:36.448Z,51.91
2018-02-25T15:49:36.554Z,52.38
2018-02-25T15:51:29.475Z,51.81
2018-02-25T15:52:29.507Z,51.72
2018-02-25T15:54:22.488Z,52.29
2018-02-25T15:55:22.530Z,52.48
2018-02-25T15:57:15.523Z,52.86
2018-02-25T15:58:15.553Z,53.05
2018-02-25T16:00:08.566Z,52.86
2018-02-25T16:01:08.603Z,53.70
2018-02-25T16:03:01.569Z,53.99
2018-02-25T16:04:01.603Z,53.99
2018-02-25T16:05:54.580Z,53.80
2018-02-25T16:06:54.642Z,53.42
2018-02-25T16:08:47.645Z,53.23
2018-02-25T16:09:47.650Z,52.86
2018-02-25T16:11:40.640Z,53.80
2018-02-25T16:12:40.672Z,53.89
2018-02-25T16:14:33.644Z,54.46
2018-02-25T16:15:33.709Z,54.65
2018-02-25T16:17:26.704Z,55.22
2018-02-25T16:18:26.750Z,55.50
2018-02-25T16:20:19.701Z,55.79
2018-02-25T16:21:19.961Z,55.60
2018-02-25T16:23:13.270Z,55.79
2018-02-25T16:24:12.763Z,56.63
2018-02-25T16:26:05.734Z,56.63
2018-02-25T16:27:05.786Z,56.51
2018-02-25T16:28:58.846Z,56.89
2018-02-25T16:29:58.860Z,57.37
2018-02-25T16:31:51.802Z,58.22
2018-02-25T16:32:51.834Z,58.97
2018-02-25T16:34:44.804Z,59.44
2018-02-25T16:35:44.856Z,59.73
2018-02-25T16:37:37.846Z,59.73
2018-02-25T16:38:37.893Z,59.82
2018-02-25T16:40:30.893Z,60.67
2018-02-25T16:41:30.920Z,60.11
2018-02-25T16:43:23.916Z,60.77
2018-02-25T16:44:23.931Z,61.33
2018-02-25T16:46:17.050Z,60.96
2018-02-25T16:47:16.950Z,61.43
2018-02-25T16:49:09.941Z,61.80
2018-02-25T16:50:09.970Z,61.33
2018-02-25T16:52:02.972Z,61.71
2018-02-25T16:53:03.006Z,62.37
2018-02-25T16:54:56.458Z,62.18
2018-02-25T16:55:56.482Z,62.47
2018-02-25T16:57:49.474Z,62.37
2018-02-25T16:58:49.502Z,62.47
2018-02-25T17:00:42.470Z,63.13
2018-02-25T17:01:42.523Z,63.42
2018-02-25T17:03:35.527Z,63.42
2018-02-25T17:04:35.545Z,63.51
2018-02-25T17:06:28.535Z,63.79
2018-02-25T17:07:28.582Z,63.89
2018-02-25T17:09:21.557Z,63.79
2018-02-25T17:10:21.866Z,63.89
2018-02-25T17:12:14.575Z,64.07
2018-02-25T17:13:14.605Z,64.45
2018-02-25T17:15:07.574Z,64.26
2018-02-25T17:16:07.630Z,64.36
2018-02-25T17:18:00.625Z,64.36
2018-02-25T17:19:00.647Z,64.45
2018-02-25T17:20:53.619Z,65.02
2018-02-25T17:21:53.670Z,65.40
2018-02-25T17:23:46.660Z,65.21
2018-02-25T17:24:46.695Z,65.21
2018-02-25T17:26:40.179Z,65.30
2018-02-25T17:27:40.238Z,65.02
2018-02-25T17:29:33.757Z,65.02
2018-02-25T17:30:33.754Z,65.21
2018-02-25T17:32:26.740Z,65.40
2018-02-25T17:33:26.780Z,65.11
2018-02-25T17:35:19.756Z,65.59
2018-02-25T17:36:19.805Z,65.68
2018-02-25T17:38:12.822Z,65.97
2018-02-25T17:39:12.860Z,66.16
2018-02-25T17:41:05.873Z,66.44
2018-02-25T17:42:05.929Z,66.44
2018-02-25T17:43:59.412Z,66.35
2018-02-25T17:44:59.444Z,66.35
2018-02-25T17:46:52.541Z,66.91
2018-02-25T17:47:52.477Z,67.63
2018-02-25T17:49:45.474Z,68.04
2018-02-25T17:50:45.505Z,67.85
2018-02-25T17:52:38.549Z,68.33
2018-02-25T17:53:38.523Z,68.80
2018-02-25T17:55:33.563Z,68.86
2018-02-25T17:56:31.546Z,69.05
2018-02-25T17:58:24.531Z,68.95
2018-02-25T17:59:24.572Z,69.24
2018-02-25T18:01:17.551Z,69.05
2018-02-25T18:02:17.582Z,68.67
2018-02-25T18:04:10.568Z,69.62
2018-02-25T18:05:10.599Z,69.14
2018-02-25T18:07:03.565Z,69.14
2018-02-25T18:08:03.620Z,69.71
2018-02-25T18:09:57.053Z,69.71
2018-02-25T18:10:56.943Z,70.28
2018-02-25T18:12:49.721Z,70.94
2018-02-25T18:13:50.728Z,70.94
2018-02-25T18:15:42.714Z,71.60
2018-02-25T18:16:42.763Z,71.31
2018-02-25T18:18:35.748Z,71.50
2018-02-25T18:19:35.811Z,72.17
2018-02-25T18:21:28.744Z,73.02
2018-02-25T18:22:28.796Z,73.21
2018-02-25T18:24:21.786Z,72.73
2018-02-25T18:25:21.816Z,72.73
2018-02-25T18:27:14.887Z,73.58
2018-02-25T18:28:15.080Z,73.39
2018-02-25T18:30:08.157Z,73.49
2018-02-25T18:31:08.813Z,73.96
2018-02-25T18:33:00.989Z,75.19
2018-02-25T18:34:01.020Z,75.47
2018-02-25T18:35:53.924Z,76.89